createdAt,value
2022-11-06T00:00:10.841Z,0
2022-11-06T00:01:11.748Z,0
2022-11-06T00:02:16.067Z,0
2022-11-06T00:03:13.326Z,0
2022-11-06T00:04:13.441Z,0
2022-11-06T00:05:13.348Z,0
2022-11-06T00:06:14.550Z,0
2022-11-06T00:07:14.914Z,0
2022-11-06T00:08:16.852Z,0
2022-11-06T00:09:16.858Z,0
2022-11-06T00:10:17.466Z,0
2022-11-06T00:11:18.658Z,0
2022-11-06T00:12:19.150Z,0
2022-11-06T00:13:18.757Z,0
2022-11-06T00:14:19.674Z,0
2022-11-06T00:15:20.149Z,0
2022-11-06T00:16:20.339Z,0
2022-11-06T00:17:20.519Z,0
2022-11-06T00:18:21.283Z,0
2022-11-06T00:19:21.114Z,0
2022-11-06T00:20:22.293Z,0
2022-11-06T00:21:23.204Z,0
2022-11-06T00:22:23.617Z,0
2022-11-06T00:23:23.257Z,0
2022-11-06T00:24:24.146Z,0
2022-11-06T00:25:24.784Z,0
2022-11-06T00:26:25.115Z,0
2022-11-06T00:27:26.060Z,0
2022-11-06T00:28:27.511Z,0
2022-11-06T00:29:26.814Z,0
2022-11-06T00:30:26.706Z,0
2022-11-06T00:31:27.907Z,0
2022-11-06T00:32:28.089Z,0
2022-11-06T00:33:28.998Z,0
2022-11-06T00:34:28.919Z,0
2022-11-06T00:35:29.242Z,0
2022-11-06T00:36:30.829Z,0
2022-11-06T00:37:31.146Z,0
2022-11-06T00:38:31.561Z,0
2022-11-06T00:39:31.581Z,0
2022-11-06T00:40:33.059Z,0
2022-11-06T00:41:32.728Z,0
2022-11-06T00:42:33.070Z,0
2022-11-06T00:43:33.979Z,0
2022-11-06T00:44:34.886Z,0
2022-11-06T00:45:35.511Z,0
2022-11-06T00:46:35.813Z,0
2022-11-06T00:47:36.749Z,0
2022-11-06T00:48:37.359Z,0
2022-11-06T00:49:38.944Z,0
2022-11-06T00:50:39.228Z,0
2022-11-06T00:51:39.230Z,0
2022-11-06T00:52:39.741Z,0
2022-11-06T00:53:39.385Z,0
2022-11-06T00:54:40.867Z,0
2022-11-06T00:55:41.062Z,0
2022-11-06T00:56:40.705Z,0
2022-11-06T00:57:41.615Z,0
2022-11-06T00:58:41.798Z,0
2022-11-06T00:59:42.522Z,0
2022-11-06T01:00:42.114Z,0
2022-11-06T01:01:43.822Z,0
2022-11-06T01:02:45.280Z,0
2022-11-06T01:03:44.825Z,0
2022-11-06T01:04:45.331Z,0
2022-11-06T01:05:44.959Z,0
2022-11-06T01:06:46.501Z,0
2022-11-06T01:07:46.447Z,0
2022-11-06T01:08:46.631Z,0
2022-11-06T01:09:46.474Z,0
2022-11-06T01:10:47.664Z,0
2022-11-06T01:12:26.069Z,0
2022-11-06T01:12:48.276Z,0
2022-11-06T01:13:48.165Z,0
2022-11-06T01:14:49.374Z,0
2022-11-06T01:15:49.659Z,0
2022-11-06T01:16:49.268Z,0
2022-11-06T01:17:50.445Z,0
2022-11-06T01:18:50.634Z,0
2022-11-06T01:19:51.627Z,0
2022-11-06T01:20:51.814Z,0
2022-11-06T01:21:52.028Z,0
2022-11-06T01:22:53.369Z,0
2022-11-06T01:23:53.536Z,0
2022-11-06T01:24:54.300Z,0
2022-11-06T01:25:55.257Z,0
2022-11-06T01:27:45.314Z,0
2022-11-06T01:28:02.220Z,0
2022-11-06T01:29:03.407Z,0
2022-11-06T01:30:04.133Z,0
2022-11-06T01:31:05.598Z,0
2022-11-06T01:32:05.493Z,0
2022-11-06T01:33:06.096Z,0
2022-11-06T01:34:06.432Z,0
2022-11-06T01:35:07.652Z,0
2022-11-06T01:36:08.554Z,0
2022-11-06T01:37:13.172Z,0
2022-11-06T01:38:09.450Z,0
2022-11-06T01:39:09.424Z,0
2022-11-06T01:40:09.826Z,0
2022-11-06T01:41:10.730Z,0
2022-11-06T01:42:11.916Z,0
2022-11-06T01:43:12.532Z,0
2022-11-06T01:44:15.288Z,0
2022-11-06T01:45:14.185Z,0
2022-11-06T01:46:15.395Z,0
2022-11-06T01:47:15.284Z,0
2022-11-06T01:48:16.854Z,0
2022-11-06T01:49:17.038Z,0
2022-11-06T01:50:18.235Z,0
2022-11-06T01:51:18.430Z,0
2022-11-06T01:52:19.355Z,0
2022-11-06T01:53:20.307Z,0
2022-11-06T01:54:19.918Z,0
2022-11-06T01:55:20.820Z,0
2022-11-06T01:56:20.752Z,0
2022-11-06T01:57:21.357Z,0
2022-11-06T01:58:23.168Z,0
2022-11-06T01:59:23.069Z,0
2022-11-06T02:00:23.206Z,0
2022-11-06T02:01:24.692Z,0
2022-11-06T02:02:25.956Z,0
2022-11-06T02:03:25.468Z,0
2022-11-06T02:04:25.674Z,0
2022-11-06T02:05:25.889Z,0
2022-11-06T02:06:26.375Z,0
2022-11-06T02:07:26.271Z,0
2022-11-06T02:08:27.685Z,0
2022-11-06T02:09:26.992Z,0
2022-11-06T02:10:28.306Z,0
2022-11-06T02:11:29.219Z,0
2022-11-06T02:12:30.423Z,0
2022-11-06T02:13:29.731Z,0
2022-11-06T02:14:30.909Z,0
2022-11-06T02:15:30.937Z,0
2022-11-06T02:16:31.972Z,0
2022-11-06T02:17:32.876Z,0
2022-11-06T02:18:33.774Z,0
2022-11-06T02:19:34.956Z,0
2022-11-06T02:20:35.328Z,0
2022-11-06T02:21:34.920Z,0
2022-11-06T02:22:36.209Z,0
2022-11-06T02:23:36.422Z,0
2022-11-06T02:24:36.599Z,0
2022-11-06T02:25:37.804Z,0
2022-11-06T02:26:37.424Z,0
2022-11-06T02:27:38.611Z,0
2022-11-06T02:28:38.515Z,0
2022-11-06T02:29:39.695Z,0
2022-11-06T02:30:39.392Z,0
2022-11-06T02:31:40.281Z,0
2022-11-06T02:32:40.911Z,0
2022-11-06T02:33:42.384Z,0
2022-11-06T02:34:41.968Z,0
2022-11-06T02:35:43.194Z,0
2022-11-06T02:36:43.390Z,0
2022-11-06T02:37:44.308Z,0
2022-11-06T02:38:45.079Z,0
2022-11-06T02:39:46.269Z,0
2022-11-06T02:40:46.420Z,0
2022-11-06T02:41:47.020Z,0
2022-11-06T02:42:47.927Z,0
2022-11-06T02:43:48.412Z,0
2022-11-06T02:44:48.895Z,0
2022-11-06T02:45:48.785Z,0
2022-11-06T02:46:49.990Z,0
2022-11-06T02:47:49.887Z,0
2022-11-06T02:48:50.508Z,0
2022-11-06T02:49:51.122Z,0
2022-11-06T02:50:51.859Z,0
2022-11-06T02:51:52.039Z,0
2022-11-06T02:52:52.663Z,0
2022-11-06T02:53:53.968Z,0
2022-11-06T02:54:54.146Z,0
2022-11-06T02:55:54.471Z,0
2022-11-06T02:56:54.821Z,0
2022-11-06T02:57:55.709Z,0
2022-11-06T02:59:00.353Z,0
2022-11-06T02:59:56.826Z,0
2022-11-06T03:00:57.105Z,0
2022-11-06T03:01:57.311Z,0
2022-11-06T03:02:58.179Z,0
2022-11-06T03:03:56.818Z,0
2022-11-06T03:04:57.723Z,0
2022-11-06T03:05:58.949Z,0
2022-11-06T03:06:59.280Z,0
2022-11-06T03:08:00.267Z,0
2022-11-06T03:09:01.791Z,0
2022-11-06T03:10:01.988Z,0
2022-11-06T03:11:01.489Z,0
2022-11-06T03:12:02.400Z,0
2022-11-06T03:13:03.028Z,0
2022-11-06T03:14:03.063Z,0
2022-11-06T03:15:03.969Z,0
2022-11-06T03:16:04.569Z,0
2022-11-06T03:17:05.875Z,0
2022-11-06T03:18:05.787Z,0
2022-11-06T03:19:06.987Z,0
2022-11-06T03:20:07.201Z,0
2022-11-06T03:21:08.498Z,0
2022-11-06T03:22:08.160Z,0
2022-11-06T03:23:09.049Z,0
2022-11-06T03:24:09.868Z,0
2022-11-06T03:25:10.747Z,0
2022-11-06T03:26:11.377Z,0
2022-11-06T03:27:12.288Z,0
2022-11-06T03:28:12.555Z,0
2022-11-06T03:29:12.613Z,0
2022-11-06T03:30:16.651Z,0
2022-11-06T03:31:12.385Z,0
2022-11-06T03:32:13.020Z,0
2022-11-06T03:33:14.230Z,0
2022-11-06T03:34:14.139Z,0
2022-11-06T03:35:15.040Z,0
2022-11-06T03:36:15.513Z,0
2022-11-06T03:37:15.405Z,0
2022-11-06T03:38:17.097Z,0
2022-11-06T03:39:17.058Z,0
2022-11-06T03:40:16.641Z,0
2022-11-06T03:41:17.619Z,0
2022-11-06T03:42:17.800Z,0
2022-11-06T03:43:19.004Z,0
2022-11-06T03:44:19.485Z,0
2022-11-06T03:45:19.668Z,0
2022-11-06T03:46:20.596Z,0
2022-11-06T03:47:20.480Z,0
2022-11-06T03:48:22.304Z,0
2022-11-06T03:49:22.219Z,0
2022-11-06T03:50:22.842Z,0
2022-11-06T03:51:23.311Z,0
2022-11-06T03:52:24.570Z,0
2022-11-06T03:53:24.467Z,0
2022-11-06T03:54:25.716Z,0
2022-11-06T03:55:25.611Z,0
2022-11-06T03:56:26.206Z,0
2022-11-06T03:57:27.793Z,0
2022-11-06T03:58:28.475Z,0
2022-11-06T03:59:28.575Z,0
2022-11-06T04:00:28.754Z,0
2022-11-06T04:01:30.240Z,0
2022-11-06T04:02:30.770Z,0
2022-11-06T04:03:30.501Z,0
2022-11-06T04:04:31.682Z,0
2022-11-06T04:05:31.864Z,0
2022-11-06T04:06:31.914Z,0
2022-11-06T04:07:32.856Z,0
2022-11-06T04:08:34.059Z,0
2022-11-06T04:09:35.016Z,0
2022-11-06T04:10:34.903Z,0
2022-11-06T04:11:35.307Z,0
2022-11-06T04:12:34.896Z,0
2022-11-06T04:13:35.799Z,0
2022-11-06T04:14:36.391Z,0
2022-11-06T04:15:37.295Z,0
2022-11-06T04:16:37.995Z,0
2022-11-06T04:17:39.008Z,0
2022-11-06T04:18:39.207Z,0
2022-11-06T04:19:39.393Z,0
2022-11-06T04:20:39.573Z,0
2022-11-06T04:21:40.514Z,0
2022-11-06T04:22:40.999Z,0
2022-11-06T04:23:43.170Z,0
2022-11-06T04:24:42.605Z,0
2022-11-06T04:25:42.833Z,0
2022-11-06T04:26:43.014Z,0
2022-11-06T04:27:42.623Z,0
2022-11-06T04:28:43.806Z,0
2022-11-06T04:29:43.695Z,0
2022-11-06T04:30:44.895Z,0
2022-11-06T04:31:44.880Z,0
2022-11-06T04:32:46.066Z,0
2022-11-06T04:33:46.702Z,0
2022-11-06T04:34:47.343Z,0
2022-11-06T04:35:48.543Z,0
2022-11-06T04:36:49.521Z,0
2022-11-06T04:37:49.135Z,0
2022-11-06T04:38:50.330Z,0
2022-11-06T04:39:50.660Z,0
2022-11-06T04:40:50.551Z,0
2022-11-06T04:41:51.802Z,0
2022-11-06T04:42:51.709Z,0
2022-11-06T04:43:52.923Z,0
2022-11-06T04:44:53.832Z,0
2022-11-06T04:45:54.315Z,0
2022-11-06T04:46:54.201Z,0
2022-11-06T04:47:55.098Z,0
2022-11-06T04:48:55.004Z,0
2022-11-06T04:49:56.191Z,0
2022-11-06T04:50:56.821Z,0
2022-11-06T04:51:58.358Z,0
2022-11-06T04:52:58.249Z,0
2022-11-06T04:53:59.165Z,0
2022-11-06T04:54:59.394Z,0
2022-11-06T04:55:59.572Z,0
2022-11-06T04:57:03.382Z,0
2022-11-06T04:58:00.286Z,0
2022-11-06T04:59:01.190Z,0
2022-11-06T05:00:02.099Z,0
2022-11-06T05:01:02.120Z,0
2022-11-06T05:02:03.524Z,0
2022-11-06T05:03:03.734Z,0
2022-11-06T05:04:03.764Z,0
2022-11-06T05:05:04.668Z,0
2022-11-06T05:06:04.977Z,0
2022-11-06T05:07:06.187Z,0
2022-11-06T05:08:06.369Z,0
2022-11-06T05:09:07.351Z,0
2022-11-06T05:10:07.669Z,0
2022-11-06T05:11:07.836Z,0
2022-11-06T05:12:08.287Z,0
2022-11-06T05:13:09.480Z,0
2022-11-06T05:14:10.668Z,0
2022-11-06T05:15:10.867Z,0
2022-11-06T05:16:11.475Z,0
2022-11-06T05:17:12.662Z,0
2022-11-06T05:18:13.118Z,0
2022-11-06T05:19:12.614Z,0
2022-11-06T05:20:13.219Z,0
2022-11-06T05:21:14.147Z,0
2022-11-06T05:22:15.599Z,0
2022-11-06T05:23:15.820Z,0
2022-11-06T05:24:16.709Z,0
2022-11-06T05:25:17.227Z,0
2022-11-06T05:26:17.416Z,0
2022-11-06T05:27:17.322Z,0
2022-11-06T05:28:18.463Z,0
2022-11-06T05:29:18.653Z,0
2022-11-06T05:30:18.544Z,0
2022-11-06T05:31:19.450Z,0
2022-11-06T05:32:20.226Z,0
2022-11-06T05:33:20.839Z,0
2022-11-06T05:34:21.768Z,0
2022-11-06T05:35:21.650Z,0
2022-11-06T05:36:22.856Z,0
2022-11-06T05:37:23.354Z,0
2022-11-06T05:38:24.349Z,0
2022-11-06T05:39:24.281Z,0
2022-11-06T05:40:25.329Z,0
2022-11-06T05:41:25.511Z,0
2022-11-06T05:42:26.840Z,0
2022-11-06T05:43:27.016Z,0
2022-11-06T05:44:26.935Z,0
2022-11-06T05:45:28.146Z,0
2022-11-06T05:47:01.170Z,0
2022-11-06T05:47:29.653Z,0
2022-11-06T05:48:29.317Z,0
2022-11-06T05:49:30.510Z,0
2022-11-06T05:50:30.996Z,0
2022-11-06T05:51:30.894Z,0
2022-11-06T05:52:31.940Z,0
2022-11-06T05:53:32.422Z,0
2022-11-06T05:54:32.704Z,0
2022-11-06T05:55:32.936Z,0
2022-11-06T05:56:32.831Z,0
2022-11-06T05:57:33.735Z,0
2022-11-06T05:58:33.637Z,0
2022-11-06T05:59:34.262Z,0
2022-11-06T06:00:35.442Z,0
2022-11-06T06:01:36.837Z,0
2022-11-06T06:02:36.642Z,0
2022-11-06T06:03:36.376Z,0
2022-11-06T06:04:37.030Z,0
2022-11-06T06:05:37.942Z,0
2022-11-06T06:06:38.113Z,0
2022-11-06T06:07:39.062Z,0
2022-11-06T06:08:39.540Z,0
2022-11-06T06:09:38.868Z,5.63
2022-11-06T06:10:40.384Z,5.63
2022-11-06T06:11:40.281Z,5.63
2022-11-06T06:12:41.846Z,5.63
2022-11-06T06:13:41.477Z,5.63
2022-11-06T06:14:44.633Z,5.63
2022-11-06T06:15:42.806Z,5.63
2022-11-06T06:16:42.993Z,5.63
2022-11-06T06:17:43.172Z,5.63
2022-11-06T06:18:43.616Z,5.63
2022-11-06T06:19:44.233Z,5.63
2022-11-06T06:20:45.121Z,5.63
2022-11-06T06:21:46.024Z,11.25
2022-11-06T06:22:47.143Z,11.25
2022-11-06T06:23:46.735Z,11.25
2022-11-06T06:24:47.843Z,11.25
2022-11-06T06:25:47.833Z,11.25
2022-11-06T06:26:48.406Z,11.25
2022-11-06T06:27:49.881Z,11.25
2022-11-06T06:28:50.364Z,16.88
2022-11-06T06:29:50.571Z,16.88
2022-11-06T06:30:50.182Z,16.88
2022-11-06T06:31:50.552Z,16.88
2022-11-06T06:32:51.440Z,16.88
2022-11-06T06:33:52.918Z,16.88
2022-11-06T06:34:53.412Z,22.5
2022-11-06T06:35:53.313Z,28.13
2022-11-06T06:36:54.501Z,56.25
2022-11-06T06:37:55.818Z,39.38
2022-11-06T06:38:55.450Z,33.75
2022-11-06T06:39:56.081Z,39.38
2022-11-06T06:40:57.655Z,45
2022-11-06T06:41:57.253Z,33.75
2022-11-06T06:42:58.454Z,33.75
2022-11-06T06:43:59.631Z,45
2022-11-06T06:44:59.847Z,56.25
2022-11-06T06:46:00.457Z,45
2022-11-06T06:47:01.359Z,33.75
2022-11-06T06:48:01.264Z,28.13
2022-11-06T06:49:01.871Z,33.75
2022-11-06T06:50:02.783Z,33.75
2022-11-06T06:51:04.059Z,33.75
2022-11-06T06:52:04.263Z,28.13
2022-11-06T06:53:05.415Z,33.75
2022-11-06T06:54:06.612Z,45
2022-11-06T06:55:07.110Z,163.13
2022-11-06T06:56:07.464Z,247.5
2022-11-06T06:57:07.661Z,191.25
2022-11-06T06:58:10.285Z,151.88
2022-11-06T06:59:09.277Z,90
2022-11-06T07:00:09.470Z,50.63
2022-11-06T07:01:10.350Z,39.38
2022-11-06T07:02:10.930Z,45
2022-11-06T07:03:10.951Z,45
2022-11-06T07:04:15.816Z,90
2022-11-06T07:05:12.006Z,163.13
2022-11-06T07:06:12.205Z,146.25
2022-11-06T07:07:12.098Z,73.13
2022-11-06T07:08:13.805Z,56.25
2022-11-06T07:09:13.833Z,106.88
2022-11-06T07:10:15.327Z,585
2022-11-06T07:11:14.994Z,950.63
2022-11-06T07:12:15.890Z,663.75
2022-11-06T07:13:17.321Z,241.88
2022-11-06T07:14:17.241Z,258.75
2022-11-06T07:15:17.157Z,444.38
2022-11-06T07:16:18.373Z,309.38
2022-11-06T07:17:19.277Z,78.75
2022-11-06T07:18:20.263Z,101.25
2022-11-06T07:19:20.789Z,360
2022-11-06T07:20:21.276Z,382.5
2022-11-06T07:21:21.530Z,151.88
2022-11-06T07:22:29.641Z,208.13
2022-11-06T07:23:23.008Z,444.38
2022-11-06T07:24:22.897Z,371.25
2022-11-06T07:25:23.820Z,331.88
2022-11-06T07:26:24.147Z,579.38
2022-11-06T07:27:24.629Z,573.75
2022-11-06T07:28:25.554Z,523.13
2022-11-06T07:29:25.485Z,590.63
2022-11-06T07:30:25.669Z,658.13
2022-11-06T07:31:25.864Z,573.75
2022-11-06T07:32:26.051Z,686.25
2022-11-06T07:33:26.707Z,641.25
2022-11-06T07:34:27.191Z,731.25
2022-11-06T07:35:26.839Z,804.38
2022-11-06T07:36:28.039Z,461.25
2022-11-06T07:37:28.258Z,438.75
2022-11-06T07:38:29.172Z,331.88
2022-11-06T07:39:29.064Z,281.25
2022-11-06T07:40:30.374Z,540
2022-11-06T07:41:30.682Z,348.75
2022-11-06T07:42:30.585Z,180
2022-11-06T07:43:31.882Z,225
2022-11-06T07:44:31.512Z,399.38
2022-11-06T07:45:33.007Z,545.63
2022-11-06T07:46:33.195Z,821.25
2022-11-06T07:47:32.806Z,860.63
2022-11-06T07:48:33.968Z,427.5
2022-11-06T07:49:34.186Z,450
2022-11-06T07:50:34.374Z,663.75
2022-11-06T07:51:33.990Z,866.25
2022-11-06T07:52:34.625Z,720
2022-11-06T07:53:35.112Z,416.25
2022-11-06T07:54:35.304Z,241.88
2022-11-06T07:55:40.945Z,151.88
2022-11-06T07:56:37.064Z,151.88
2022-11-06T07:57:38.260Z,258.75
2022-11-06T07:58:39.198Z,438.75
2022-11-06T07:59:39.237Z,472.5
2022-11-06T08:00:41.293Z,309.38
2022-11-06T08:01:42.174Z,213.75
2022-11-06T08:02:42.989Z,163.13
2022-11-06T08:03:42.720Z,118.13
2022-11-06T08:04:43.533Z,112.5
2022-11-06T08:05:44.148Z,112.5
2022-11-06T08:06:45.044Z,106.88
2022-11-06T08:07:45.669Z,112.5
2022-11-06T08:08:46.609Z,135
2022-11-06T08:09:47.512Z,140.63
2022-11-06T08:10:48.418Z,135
2022-11-06T08:11:49.666Z,123.75
2022-11-06T08:12:49.290Z,123.75
2022-11-06T08:13:50.334Z,140.63
2022-11-06T08:14:57.949Z,157.5
2022-11-06T08:15:51.843Z,146.25
2022-11-06T08:16:52.451Z,140.63
2022-11-06T08:17:53.094Z,140.63
2022-11-06T08:18:53.996Z,146.25
2022-11-06T08:19:55.007Z,185.63
2022-11-06T08:20:55.924Z,163.13
2022-11-06T08:21:55.840Z,135
2022-11-06T08:22:57.033Z,146.25
2022-11-06T08:23:58.062Z,163.13
2022-11-06T08:24:58.979Z,140.63
2022-11-06T08:25:58.881Z,135
2022-11-06T08:27:00.422Z,146.25
2022-11-06T08:28:00.031Z,157.5
2022-11-06T08:29:00.963Z,180
2022-11-06T08:30:00.892Z,163.13
2022-11-06T08:31:01.830Z,129.38
2022-11-06T08:32:02.472Z,123.75
2022-11-06T08:33:02.811Z,118.13
2022-11-06T08:34:03.839Z,118.13
2022-11-06T08:35:04.758Z,123.75
2022-11-06T08:36:05.971Z,123.75
2022-11-06T08:37:06.734Z,123.75
2022-11-06T08:38:06.649Z,129.38
2022-11-06T08:39:07.911Z,123.75
2022-11-06T08:40:08.122Z,123.75
2022-11-06T08:41:10.413Z,123.75
2022-11-06T08:42:09.076Z,123.75
2022-11-06T08:43:10.423Z,135
2022-11-06T08:44:09.990Z,140.63
2022-11-06T08:45:10.914Z,146.25
2022-11-06T08:46:11.828Z,151.88
2022-11-06T08:47:11.448Z,140.63
2022-11-06T08:48:12.639Z,140.63
2022-11-06T08:49:13.258Z,140.63
2022-11-06T08:50:14.500Z,140.63
2022-11-06T08:51:14.384Z,140.63
2022-11-06T08:52:15.277Z,146.25
2022-11-06T08:53:17.324Z,151.88
2022-11-06T08:54:16.779Z,157.5
2022-11-06T08:55:16.668Z,174.38
2022-11-06T08:56:18.282Z,185.63
2022-11-06T08:57:18.716Z,163.13
2022-11-06T08:58:18.336Z,157.5
2022-11-06T08:59:19.538Z,180
2022-11-06T09:00:19.748Z,174.38
2022-11-06T09:01:19.523Z,163.13
2022-11-06T09:02:21.357Z,151.88
2022-11-06T09:03:23.125Z,146.25
2022-11-06T09:04:21.851Z,140.63
2022-11-06T09:05:21.469Z,146.25
2022-11-06T09:06:22.660Z,151.88
2022-11-06T09:07:22.551Z,185.63
2022-11-06T09:08:23.743Z,230.63
2022-11-06T09:09:23.969Z,286.88
2022-11-06T09:10:23.865Z,303.75
2022-11-06T09:11:25.124Z,286.88
2022-11-06T09:12:25.350Z,258.75
2022-11-06T09:13:26.413Z,225
2022-11-06T09:14:25.888Z,230.63
2022-11-06T09:15:26.785Z,219.38
2022-11-06T09:16:31.856Z,219.38
2022-11-06T09:17:28.474Z,208.13
2022-11-06T09:18:29.393Z,180
2022-11-06T09:19:30.884Z,191.25
2022-11-06T09:20:30.622Z,208.13
2022-11-06T09:21:31.806Z,196.88
2022-11-06T09:22:32.001Z,219.38
2022-11-06T09:23:33.805Z,258.75
2022-11-06T09:25:14.131Z,298.13
2022-11-06T09:25:34.074Z,281.25
2022-11-06T09:26:34.406Z,303.75
2022-11-06T09:27:35.641Z,320.63
2022-11-06T09:28:35.887Z,337.5
2022-11-06T09:29:36.208Z,388.13
2022-11-06T09:30:37.413Z,410.63
2022-11-06T09:31:38.628Z,382.5
2022-11-06T09:32:38.269Z,438.75
2022-11-06T09:33:39.483Z,405
2022-11-06T09:34:39.784Z,382.5
2022-11-06T09:35:39.677Z,371.25
2022-11-06T09:36:40.315Z,489.38
2022-11-06T09:37:40.653Z,540
2022-11-06T09:38:41.297Z,646.88
2022-11-06T09:39:42.218Z,663.75
2022-11-06T09:40:43.167Z,540
2022-11-06T09:41:43.089Z,354.38
2022-11-06T09:42:44.337Z,388.13
2022-11-06T09:44:18.857Z,534.38
2022-11-06T09:45:06.547Z,641.25
2022-11-06T09:46:11.556Z,646.88
2022-11-06T09:47:08.774Z,663.75
2022-11-06T09:48:08.968Z,781.88
2022-11-06T09:49:09.166Z,928.13
2022-11-06T09:50:10.109Z,804.38
2022-11-06T09:51:11.394Z,922.5
2022-11-06T09:52:12.897Z,793.13
2022-11-06T09:53:25.631Z,922.5
2022-11-06T09:54:13.621Z,911.25
2022-11-06T09:55:16.457Z,697.5
2022-11-06T09:56:13.673Z,635.63
2022-11-06T09:57:13.906Z,585
2022-11-06T09:58:13.630Z,585
2022-11-06T09:59:14.246Z,556.88
2022-11-06T10:00:13.852Z,585
2022-11-06T10:01:21.140Z,725.63
2022-11-06T10:02:16.035Z,748.13
2022-11-06T10:03:15.829Z,804.38
2022-11-06T10:04:16.634Z,804.38
2022-11-06T10:05:17.665Z,703.13
2022-11-06T10:06:18.861Z,866.25
2022-11-06T10:07:19.061Z,720
2022-11-06T10:08:20.589Z,798.75
2022-11-06T10:09:20.212Z,883.13
2022-11-06T10:10:21.128Z,939.38
2022-11-06T10:11:22.073Z,1068.75
2022-11-06T10:12:23.287Z,1434.38
2022-11-06T10:13:29.105Z,1518.75
2022-11-06T10:14:25.585Z,1440
2022-11-06T10:15:25.914Z,1518.75
2022-11-06T10:16:25.814Z,1501.88
2022-11-06T10:17:27.033Z,1479.38
2022-11-06T10:18:29.002Z,1372.5
2022-11-06T10:19:28.930Z,1321.88
2022-11-06T10:20:37.677Z,1361.25
2022-11-06T10:21:29.996Z,1378.13
2022-11-06T10:22:29.779Z,1378.13
2022-11-06T10:23:31.276Z,1350
2022-11-06T10:24:31.496Z,1355.63
2022-11-06T10:25:30.934Z,1299.38
2022-11-06T10:26:38.109Z,1293.75
2022-11-06T10:27:32.331Z,1395
2022-11-06T10:28:33.487Z,1355.63
2022-11-06T10:29:33.676Z,1215
2022-11-06T10:30:34.335Z,1063.13
2022-11-06T10:31:35.329Z,1108.13
2022-11-06T10:32:36.239Z,1096.88
2022-11-06T10:33:37.163Z,933.75
2022-11-06T10:34:38.671Z,1288.13
2022-11-06T10:35:38.755Z,1333.13
2022-11-06T10:36:39.678Z,1282.5
2022-11-06T10:37:40.323Z,1316.25
2022-11-06T10:38:40.728Z,1299.38
2022-11-06T10:39:41.056Z,1310.63
2022-11-06T10:40:41.987Z,1080
2022-11-06T10:41:42.349Z,1085.63
2022-11-06T10:42:49.642Z,1113.75
2022-11-06T10:43:43.336Z,1119.38
2022-11-06T10:44:44.550Z,1108.13
2022-11-06T10:45:44.977Z,990
2022-11-06T10:46:45.600Z,900
2022-11-06T10:47:46.799Z,1040.63
2022-11-06T10:48:53.199Z,1012.5
2022-11-06T10:49:47.694Z,916.88
2022-11-06T10:50:47.335Z,916.88
2022-11-06T10:51:47.662Z,765
2022-11-06T10:52:48.862Z,866.25
2022-11-06T10:53:48.476Z,871.88
2022-11-06T10:54:49.376Z,877.5
2022-11-06T10:55:49.835Z,928.13
2022-11-06T10:56:51.482Z,838.13
2022-11-06T10:57:51.423Z,939.38
2022-11-06T10:58:52.624Z,1029.38
2022-11-06T10:59:52.835Z,995.63
2022-11-06T11:00:53.325Z,843.75
2022-11-06T11:01:54.213Z,787.5
2022-11-06T11:02:54.109Z,669.38
2022-11-06T11:03:54.605Z,810
2022-11-06T11:04:57.861Z,1001.25
2022-11-06T11:05:55.279Z,1035
2022-11-06T11:06:55.805Z,1074.38
2022-11-06T11:07:55.732Z,950.63
2022-11-06T11:08:57.053Z,905.63
2022-11-06T11:09:56.682Z,585
2022-11-06T11:11:16.261Z,365.63
2022-11-06T11:11:58.492Z,455.63
2022-11-06T11:13:00.787Z,585
2022-11-06T11:13:58.958Z,540
2022-11-06T11:14:58.867Z,613.13
2022-11-06T11:15:59.888Z,765
2022-11-06T11:17:00.836Z,630
2022-11-06T11:18:02.069Z,360
2022-11-06T11:19:01.719Z,281.25
2022-11-06T11:20:03.214Z,275.63
2022-11-06T11:21:03.142Z,376.88
2022-11-06T11:22:04.188Z,478.13
2022-11-06T11:23:05.719Z,421.88
2022-11-06T11:24:05.641Z,433.13
2022-11-06T11:25:06.865Z,500.63
2022-11-06T11:26:07.312Z,568.13
2022-11-06T11:27:08.364Z,410.63
2022-11-06T11:28:15.933Z,433.13
2022-11-06T11:29:10.051Z,635.63
2022-11-06T11:30:09.959Z,641.25
2022-11-06T11:31:10.871Z,686.25
2022-11-06T11:32:11.767Z,804.38
2022-11-06T11:33:12.978Z,900
2022-11-06T11:34:12.334Z,1012.5
2022-11-06T11:35:13.923Z,967.5
2022-11-06T11:36:14.247Z,849.38
2022-11-06T11:37:14.498Z,810
2022-11-06T11:38:15.049Z,675
2022-11-06T11:39:15.168Z,607.5
2022-11-06T11:40:24.126Z,652.5
2022-11-06T11:41:17.353Z,455.63
2022-11-06T11:42:17.873Z,511.88
2022-11-06T11:43:17.791Z,646.88
2022-11-06T11:44:19.108Z,680.63
2022-11-06T11:45:19.305Z,568.13
2022-11-06T11:46:20.318Z,669.38
2022-11-06T11:47:25.747Z,675
2022-11-06T11:48:21.611Z,776.25
2022-11-06T11:49:20.963Z,781.88
2022-11-06T11:50:21.864Z,686.25
2022-11-06T11:51:23.068Z,573.75
2022-11-06T11:52:23.268Z,534.38
2022-11-06T11:53:26.728Z,630
2022-11-06T11:54:23.647Z,416.25
2022-11-06T11:55:24.301Z,376.88
2022-11-06T11:57:17.614Z,371.25
2022-11-06T11:57:35.484Z,388.13
2022-11-06T11:58:35.513Z,399.38
2022-11-06T11:59:35.572Z,455.63
2022-11-06T12:00:36.485Z,511.88
2022-11-06T12:01:37.400Z,483.75
2022-11-06T12:02:44.447Z,478.13
2022-11-06T12:03:38.607Z,472.5
2022-11-06T12:04:39.546Z,455.63
2022-11-06T12:05:40.773Z,388.13
2022-11-06T12:06:40.935Z,410.63
2022-11-06T12:07:46.322Z,388.13
2022-11-06T12:08:42.912Z,326.25
2022-11-06T12:09:43.125Z,354.38
2022-11-06T12:10:42.760Z,348.75
2022-11-06T12:11:43.411Z,360
2022-11-06T12:12:44.638Z,337.5
2022-11-06T12:13:45.154Z,354.38
2022-11-06T12:14:44.937Z,365.63
2022-11-06T12:15:45.840Z,343.13
2022-11-06T12:16:46.697Z,337.5
2022-11-06T12:17:47.326Z,337.5
2022-11-06T12:18:47.929Z,292.5
2022-11-06T12:19:48.855Z,292.5
2022-11-06T12:20:49.069Z,286.88
2022-11-06T12:21:49.269Z,275.63
2022-11-06T12:22:49.568Z,281.25
2022-11-06T12:23:49.237Z,354.38
2022-11-06T12:24:49.856Z,354.38
2022-11-06T12:25:51.055Z,292.5
2022-11-06T12:26:51.500Z,258.75
2022-11-06T12:27:52.834Z,241.88
2022-11-06T12:28:52.917Z,275.63
2022-11-06T12:29:53.205Z,264.38
2022-11-06T12:30:52.815Z,247.5
2022-11-06T12:31:53.443Z,219.38
2022-11-06T12:32:54.940Z,213.75
2022-11-06T12:34:28.552Z,230.63
2022-11-06T12:34:55.175Z,236.25
2022-11-06T12:35:56.378Z,253.13
2022-11-06T12:36:57.097Z,230.63
2022-11-06T12:37:58.012Z,213.75
2022-11-06T12:38:58.929Z,225
2022-11-06T12:39:58.834Z,230.63
2022-11-06T12:40:59.744Z,241.88
2022-11-06T12:42:00.184Z,264.38
2022-11-06T12:43:01.127Z,275.63
2022-11-06T12:44:02.063Z,275.63
2022-11-06T12:45:02.741Z,281.25
2022-11-06T12:46:03.650Z,264.38
2022-11-06T12:47:03.521Z,258.75
2022-11-06T12:48:05.025Z,241.88
2022-11-06T12:49:04.949Z,219.38
2022-11-06T12:50:04.904Z,230.63
2022-11-06T12:51:06.103Z,264.38
2022-11-06T12:52:06.020Z,275.63
2022-11-06T12:53:11.761Z,258.75
2022-11-06T12:54:07.662Z,264.38
2022-11-06T12:55:08.286Z,241.88
2022-11-06T12:56:08.952Z,236.25
2022-11-06T12:57:09.768Z,236.25
2022-11-06T12:58:11.151Z,247.5
2022-11-06T12:59:11.244Z,230.63
2022-11-06T13:00:12.586Z,230.63
2022-11-06T13:01:13.203Z,208.13
2022-11-06T13:02:14.602Z,208.13
2022-11-06T13:03:13.855Z,230.63
2022-11-06T13:04:14.188Z,247.5
2022-11-06T13:05:15.663Z,236.25
2022-11-06T13:06:24.101Z,230.63
2022-11-06T13:07:16.114Z,230.63
2022-11-06T13:08:17.266Z,225
2022-11-06T13:09:16.379Z,213.75
2022-11-06T13:10:17.967Z,219.38
2022-11-06T13:11:18.168Z,236.25
2022-11-06T13:12:18.547Z,225
2022-11-06T13:13:26.456Z,230.63
2022-11-06T13:14:20.375Z,236.25
2022-11-06T13:15:21.909Z,236.25
2022-11-06T13:16:22.385Z,225
2022-11-06T13:17:22.471Z,230.63
2022-11-06T13:18:23.650Z,213.75
2022-11-06T13:19:22.972Z,225
2022-11-06T13:20:24.598Z,225
2022-11-06T13:21:25.517Z,219.38
2022-11-06T13:22:25.434Z,219.38
2022-11-06T13:23:26.614Z,213.75
2022-11-06T13:24:26.540Z,219.38
2022-11-06T13:25:27.748Z,213.75
2022-11-06T13:26:27.659Z,213.75
2022-11-06T13:27:28.931Z,225
2022-11-06T13:28:30.757Z,219.38
2022-11-06T13:29:29.687Z,213.75
2022-11-06T13:30:31.313Z,225
2022-11-06T13:31:31.498Z,208.13
2022-11-06T13:32:32.000Z,185.63
2022-11-06T13:33:31.895Z,208.13
2022-11-06T13:34:32.794Z,230.63
2022-11-06T13:35:33.989Z,241.88
2022-11-06T13:36:34.182Z,247.5
2022-11-06T13:37:35.563Z,241.88
2022-11-06T13:38:35.360Z,241.88
2022-11-06T13:39:36.576Z,230.63
2022-11-06T13:40:36.784Z,230.63
2022-11-06T13:41:38.006Z,225